createdAt,value
2024-01-03T00:00:31.471Z,23.98
2024-01-03T00:02:58.681Z,20.83
2024-01-03T00:05:36.803Z,21.58
2024-01-03T00:08:05.434Z,14.63
2024-01-03T00:10:48.150Z,9.82
2024-01-03T00:13:39.816Z,11.77
2024-01-03T00:16:07.845Z,10.18
2024-01-03T00:18:51.974Z,12.07
2024-01-03T00:21:26.425Z,14.50
2024-01-03T00:24:02.219Z,18.05
2024-01-03T00:26:30.597Z,15.52
2024-01-03T00:28:58.753Z,15.60
2024-01-03T00:31:25.524Z,12.90
2024-01-03T00:33:53.056Z,14.77
2024-01-03T00:36:19.824Z,16.60
2024-01-03T00:38:46.861Z,20.35
2024-01-03T00:41:16.809Z,18.20
2024-01-03T00:43:43.524Z,18.98
2024-01-03T00:46:10.659Z,20.35
2024-01-03T00:48:37.879Z,21.25
2024-01-03T00:51:05.327Z,13.75
2024-01-03T00:53:33.322Z,17.80
2024-01-03T00:56:01.457Z,23.50
2024-01-03T00:58:28.958Z,33.63
2024-01-03T01:00:55.793Z,29.90
2024-01-03T01:03:23.146Z,37.65
2024-01-03T01:05:50.311Z,43.25
2024-01-03T01:08:20.891Z,44.67
2024-01-03T01:10:48.019Z,43.58
2024-01-03T01:13:14.761Z,46.65
2024-01-03T01:15:41.951Z,40.50
2024-01-03T01:18:09.089Z,44.95
2024-01-03T01:20:36.257Z,45.15
2024-01-03T01:23:03.110Z,34.08
2024-01-03T01:25:29.842Z,34.13
2024-01-03T01:27:56.653Z,39.28
2024-01-03T01:30:23.496Z,33.75
2024-01-03T01:32:51.703Z,36.78
2024-01-03T01:35:19.091Z,39.10
2024-01-03T01:37:46.082Z,35.97
2024-01-03T01:40:13.298Z,31.95
2024-01-03T01:42:45.048Z,39.75
2024-01-03T01:45:12.006Z,37.00
2024-01-03T01:47:44.060Z,42.10
2024-01-03T01:50:11.892Z,32.60
2024-01-03T01:52:40.518Z,34.88
2024-01-03T01:55:09.501Z,30.75
2024-01-03T01:57:38.034Z,32.35
2024-01-03T02:00:05.681Z,29.60
2024-01-03T02:02:32.872Z,32.47
2024-01-03T02:04:59.953Z,30.17
2024-01-03T02:07:27.662Z,25.70
2024-01-03T02:09:54.622Z,25.80
2024-01-03T02:12:28.398Z,26.02
2024-01-03T02:14:55.511Z,24.08
2024-01-03T02:17:22.907Z,21.15
2024-01-03T02:19:50.329Z,22.52
2024-01-03T02:22:17.124Z,24.70
2024-01-03T02:24:43.807Z,21.40
2024-01-03T02:27:10.569Z,23.50
2024-01-03T02:29:37.373Z,24.85
2024-01-03T02:32:04.433Z,25.17
2024-01-03T02:34:31.339Z,26.38
2024-01-03T02:36:58.248Z,27.38
2024-01-03T02:39:25.070Z,25.17
2024-01-03T02:41:51.789Z,21.48
2024-01-03T02:44:18.544Z,24.08
2024-01-03T02:46:45.273Z,21.30
2024-01-03T02:49:12.093Z,24.40
2024-01-03T02:51:38.904Z,25.83
2024-01-03T02:54:05.734Z,23.80
2024-01-03T02:56:32.546Z,24.98
2024-01-03T02:58:59.274Z,18.20
2024-01-03T03:01:26.034Z,22.63
2024-01-03T03:03:52.796Z,24.90
2024-01-03T03:06:19.712Z,22.63
2024-01-03T03:08:46.553Z,23.70
2024-01-03T03:11:14.025Z,23.38
2024-01-03T03:13:40.774Z,21.45
2024-01-03T03:16:08.841Z,24.13
2024-01-03T03:18:35.857Z,52.53
2024-01-03T03:21:02.712Z,65.88
2024-01-03T03:23:29.549Z,38.50
2024-01-03T03:25:56.244Z,25.83
2024-01-03T03:28:23.390Z,25.70
2024-01-03T03:30:50.168Z,36.92
2024-01-03T03:33:17.693Z,32.78
2024-01-03T03:35:44.564Z,25.55
2024-01-03T03:38:11.404Z,22.42
2024-01-03T03:40:38.224Z,25.63
2024-01-03T03:43:05.041Z,26.50
2024-01-03T03:45:33.058Z,23.70
2024-01-03T03:48:00.012Z,23.05
2024-01-03T03:50:26.801Z,47.65
2024-01-03T03:52:53.477Z,20.35
2024-01-03T03:55:20.401Z,28.63
2024-01-03T03:57:47.121Z,33.03
2024-01-03T04:00:14.401Z,34.17
2024-01-03T04:02:41.188Z,33.30
2024-01-03T04:05:08.438Z,34.15
2024-01-03T04:07:35.147Z,34.92
2024-01-03T04:10:01.989Z,20.73
2024-01-03T04:12:28.817Z,28.23
2024-01-03T04:14:55.806Z,23.35
2024-01-03T04:17:22.753Z,18.02
2024-01-03T04:19:49.710Z,17.77
2024-01-03T04:22:16.794Z,21.75
2024-01-03T04:24:43.570Z,17.83
2024-01-03T04:27:10.586Z,18.67
2024-01-03T04:29:37.359Z,24.30
2024-01-03T04:32:07.819Z,25.45
2024-01-03T04:34:34.822Z,23.67
2024-01-03T04:37:01.567Z,25.15
2024-01-03T04:39:28.552Z,37.08
2024-01-03T04:41:55.432Z,30.50
2024-01-03T04:44:22.186Z,26.95
2024-01-03T04:46:48.978Z,21.40
2024-01-03T04:49:15.875Z,27.92
2024-01-03T04:51:42.736Z,22.35
2024-01-03T04:54:09.458Z,24.33
2024-01-03T04:56:36.874Z,18.73
2024-01-03T04:59:04.675Z,19.23
2024-01-03T05:01:31.378Z,17.75
2024-01-03T05:03:58.242Z,16.05
2024-01-03T05:06:25.333Z,20.00
2024-01-03T05:08:52.163Z,18.60
2024-01-03T05:11:18.986Z,19.83
2024-01-03T05:13:45.839Z,19.02
2024-01-03T05:16:12.708Z,19.90
2024-01-03T05:18:39.625Z,21.23
2024-01-03T05:21:09.372Z,15.50
2024-01-03T05:23:36.155Z,18.73
2024-01-03T05:26:02.880Z,21.65
2024-01-03T05:28:29.854Z,18.30
2024-01-03T05:30:56.648Z,16.90
2024-01-03T05:33:23.812Z,15.73
2024-01-03T05:35:51.170Z,16.25
2024-01-03T05:38:19.069Z,15.35
2024-01-03T05:40:46.046Z,16.25
2024-01-03T05:43:14.217Z,16.35
2024-01-03T05:45:41.067Z,15.60
2024-01-03T05:48:08.352Z,18.98
2024-01-03T05:50:35.513Z,20.75
2024-01-03T05:53:02.290Z,15.57
2024-01-03T05:55:29.038Z,17.52
2024-01-03T05:57:55.836Z,17.23
2024-01-03T06:00:23.154Z,16.35
2024-01-03T06:02:49.950Z,20.08
2024-01-03T06:05:19.756Z,16.00
2024-01-03T06:07:46.639Z,18.67
2024-01-03T06:10:13.553Z,15.50
2024-01-03T06:12:43.282Z,18.00
2024-01-03T06:15:10.314Z,17.55
2024-01-03T06:17:37.743Z,21.10
2024-01-03T06:20:05.917Z,19.98
2024-01-03T06:22:32.760Z,18.90
2024-01-03T06:24:59.548Z,20.75
2024-01-03T06:27:26.313Z,16.92
2024-01-03T06:29:53.234Z,17.15
2024-01-03T06:32:20.192Z,20.08
2024-01-03T06:34:47.261Z,27.98
2024-01-03T06:37:14.017Z,25.98
2024-01-03T06:39:40.737Z,23.30
2024-01-03T06:42:07.484Z,22.05
2024-01-03T06:44:34.390Z,27.55
2024-01-03T06:47:01.079Z,26.20
2024-01-03T06:49:27.918Z,27.45
2024-01-03T06:51:54.770Z,36.95
2024-01-03T06:54:21.524Z,51.40
2024-01-03T06:56:48.396Z,98.65
2024-01-03T06:59:15.148Z,63.78
2024-01-03T07:01:41.865Z,40.70
2024-01-03T07:04:08.666Z,32.72
2024-01-03T07:06:35.563Z,34.03
2024-01-03T07:09:02.532Z,41.33
2024-01-03T07:11:29.890Z,65.40
2024-01-03T07:13:56.721Z,63.08
2024-01-03T07:16:23.503Z,75.50
2024-01-03T07:18:50.544Z,69.70
2024-01-03T07:21:17.365Z,46.33
2024-01-03T07:23:44.286Z,49.20
2024-01-03T07:26:11.136Z,51.20
2024-01-03T07:28:38.356Z,46.53
2024-01-03T07:31:05.372Z,39.92
2024-01-03T07:33:32.326Z,39.05
2024-01-03T07:35:59.487Z,36.67
2024-01-03T07:38:26.275Z,30.73
2024-01-03T07:40:53.199Z,31.70
2024-01-03T07:43:19.886Z,36.55
2024-01-03T07:45:46.631Z,30.02
2024-01-03T07:48:13.898Z,54.50
2024-01-03T07:50:41.226Z,36.30
2024-01-03T07:53:08.689Z,33.88
2024-01-03T07:55:35.423Z,74.53
2024-01-03T07:58:02.611Z,43.00
2024-01-03T08:00:31.698Z,30.83
2024-01-03T08:02:58.991Z,32.60
2024-01-03T08:05:26.190Z,37.67
2024-01-03T08:07:53.064Z,45.28
2024-01-03T08:10:19.771Z,44.88
2024-01-03T08:12:46.610Z,48.28
2024-01-03T08:15:14.149Z,54.90
2024-01-03T08:17:41.007Z,55.20
2024-01-03T08:20:09.862Z,51.53
2024-01-03T08:22:37.330Z,48.80
2024-01-03T08:25:04.346Z,50.22
2024-01-03T08:27:33.650Z,55.67
2024-01-03T08:30:00.656Z,52.50
2024-01-03T08:32:27.725Z,70.50
2024-01-03T08:34:54.632Z,86.03
2024-01-03T08:37:23.863Z,71.32
2024-01-03T08:39:51.131Z,62.70
2024-01-03T08:42:17.942Z,40.45
2024-01-03T08:44:44.751Z,33.10
2024-01-03T08:47:14.816Z,31.48
2024-01-03T08:49:44.053Z,32.13
2024-01-03T08:52:11.597Z,31.20
2024-01-03T08:54:38.431Z,36.58
2024-01-03T08:57:05.551Z,46.55
2024-01-03T08:59:32.424Z,65.88
2024-01-03T09:01:59.254Z,35.50
2024-01-03T09:04:25.949Z,38.60
2024-01-03T09:06:53.814Z,49.70
2024-01-03T09:09:20.694Z,31.67
2024-01-03T09:11:47.466Z,34.67
2024-01-03T09:14:14.680Z,49.47
2024-01-03T09:16:41.562Z,46.55
2024-01-03T09:19:10.329Z,43.28
2024-01-03T09:21:44.411Z,47.53
2024-01-03T09:24:11.361Z,54.15
2024-01-03T09:26:38.449Z,51.67
2024-01-03T09:29:06.944Z,42.92
2024-01-03T09:31:34.763Z,31.15
2024-01-03T09:34:01.701Z,28.50
2024-01-03T09:36:29.073Z,47.20
2024-01-03T09:38:56.425Z,64.82
2024-01-03T09:41:24.555Z,80.10
2024-01-03T09:43:54.441Z,86.13
2024-01-03T09:46:23.424Z,96.55
2024-01-03T09:48:51.087Z,106.10
2024-01-03T09:51:20.402Z,125.47
2024-01-03T09:53:58.048Z,112.07
2024-01-03T09:56:24.985Z,88.07
2024-01-03T09:58:51.840Z,79.38
2024-01-03T10:01:21.638Z,76.03
2024-01-03T10:03:48.619Z,79.40
2024-01-03T10:06:18.843Z,62.30
2024-01-03T10:09:02.057Z,47.00
2024-01-03T10:11:29.568Z,56.92
2024-01-03T10:13:57.854Z,53.22
2024-01-03T10:16:26.807Z,50.72
2024-01-03T10:19:21.691Z,52.45
2024-01-03T10:21:53.462Z,48.83
2024-01-03T10:24:23.505Z,35.25
2024-01-03T10:26:51.014Z,39.28
2024-01-03T10:29:20.589Z,39.33
2024-01-03T10:31:48.663Z,34.80
2024-01-03T10:34:22.486Z,33.33
2024-01-03T10:36:50.945Z,35.55
2024-01-03T10:39:20.398Z,32.63
2024-01-03T10:41:49.247Z,35.83
2024-01-03T10:44:19.002Z,38.17
2024-01-03T10:46:46.535Z,34.60
2024-01-03T10:49:15.590Z,40.80
2024-01-03T10:51:49.748Z,48.13
2024-01-03T10:54:18.735Z,37.33
2024-01-03T10:56:50.138Z,38.50
2024-01-03T10:59:18.725Z,40.28
2024-01-03T11:01:56.465Z,49.20
2024-01-03T11:04:48.991Z,41.40
2024-01-03T11:07:34.597Z,56.13
2024-01-03T11:10:01.423Z,68.68
2024-01-03T11:12:30.295Z,57.42
2024-01-03T11:15:37.523Z,65.18
2024-01-03T11:18:10.130Z,62.90
2024-01-03T11:20:37.279Z,68.50
2024-01-03T11:23:06.253Z,70.22
2024-01-03T11:25:52.921Z,67.90
2024-01-03T11:28:37.981Z,78.80
2024-01-03T11:31:08.510Z,86.97
2024-01-03T11:33:44.717Z,88.50
2024-01-03T11:36:11.682Z,81.75
2024-01-03T11:38:45.645Z,70.00
2024-01-03T11:41:17.197Z,67.18
2024-01-03T11:43:44.073Z,71.78
2024-01-03T11:46:12.794Z,83.25
2024-01-03T11:48:43.635Z,86.75
2024-01-03T11:51:25.336Z,87.32
2024-01-03T11:53:53.178Z,83.55
2024-01-03T11:56:30.262Z,91.03
2024-01-03T11:58:59.039Z,75.55
2024-01-03T12:01:26.042Z,83.18
2024-01-03T12:04:14.649Z,81.68
2024-01-03T12:06:41.809Z,89.72
2024-01-03T12:09:09.251Z,101.50
2024-01-03T12:11:37.133Z,106.78
2024-01-03T12:14:03.951Z,126.30
2024-01-03T12:16:30.670Z,133.68
2024-01-03T12:18:57.672Z,128.18
2024-01-03T12:21:24.633Z,132.60
2024-01-03T12:24:03.087Z,127.85
2024-01-03T12:26:30.535Z,110.32
2024-01-03T12:29:04.938Z,105.88
2024-01-03T12:31:31.869Z,93.93
2024-01-03T12:34:06.431Z,77.43
2024-01-03T12:36:34.004Z,62.28
2024-01-03T12:39:01.291Z,58.28
2024-01-03T12:41:28.153Z,75.43
2024-01-03T12:43:54.966Z,52.85
2024-01-03T12:46:21.838Z,82.75
2024-01-03T12:48:48.742Z,54.17
2024-01-03T12:51:15.691Z,62.90
2024-01-03T12:53:42.624Z,47.63
2024-01-03T12:56:09.369Z,65.13
2024-01-03T12:58:36.104Z,36.95
2024-01-03T13:01:03.411Z,53.20
2024-01-03T13:03:30.275Z,37.75
2024-01-03T13:05:57.086Z,36.40
2024-01-03T13:08:23.913Z,49.25
2024-01-03T13:10:50.824Z,84.45
2024-01-03T13:13:17.746Z,49.20
2024-01-03T13:15:47.532Z,43.78
2024-01-03T13:18:14.775Z,42.95
2024-01-03T13:20:41.861Z,54.13
2024-01-03T13:23:08.979Z,74.70
2024-01-03T13:25:36.079Z,72.63
2024-01-03T13:28:02.848Z,80.38
2024-01-03T13:30:30.405Z,88.63
2024-01-03T13:32:57.582Z,95.75
2024-01-03T13:35:24.905Z,54.03
2024-01-03T13:37:51.854Z,48.15
2024-01-03T13:40:20.074Z,41.63
2024-01-03T13:42:46.853Z,27.85
2024-01-03T13:45:13.734Z,31.23
2024-01-03T13:47:40.613Z,21.90
2024-01-03T13:50:07.794Z,22.30
2024-01-03T13:52:35.243Z,19.85
2024-01-03T13:55:02.436Z,19.10
2024-01-03T13:57:29.170Z,20.40
2024-01-03T13:59:56.010Z,21.80
2024-01-03T14:02:22.729Z,28.88
2024-01-03T14:04:49.455Z,23.52
2024-01-03T14:07:16.269Z,28.73
2024-01-03T14:09:43.065Z,38.25
2024-01-03T14:12:10.580Z,36.83
2024-01-03T14:14:37.754Z,51.72
2024-01-03T14:17:05.737Z,49.58
2024-01-03T14:19:32.583Z,66.47
2024-01-03T14:22:01.298Z,86.85
2024-01-03T14:24:28.099Z,80.82
2024-01-03T14:26:55.171Z,77.53
2024-01-03T14:29:22.844Z,86.88
2024-01-03T14:31:49.556Z,71.18
2024-01-03T14:34:16.448Z,63.97
2024-01-03T14:36:43.325Z,56.95
2024-01-03T14:39:10.293Z,58.10
2024-01-03T14:41:37.901Z,66.22
2024-01-03T14:44:10.808Z,70.80
2024-01-03T14:46:37.594Z,66.53
2024-01-03T14:49:05.039Z,50.03
2024-01-03T14:51:38.561Z,56.70
2024-01-03T14:54:05.381Z,64.55
2024-01-03T14:56:33.552Z,70.93
2024-01-03T14:59:00.507Z,87.97
2024-01-03T15:01:29.011Z,100.95
2024-01-03T15:03:55.927Z,117.93
2024-01-03T15:06:23.400Z,96.25
2024-01-03T15:08:50.695Z,109.25
2024-01-03T15:11:17.479Z,85.38
2024-01-03T15:13:46.136Z,132.68
2024-01-03T15:16:13.160Z,95.60
2024-01-03T15:18:39.975Z,96.25
2024-01-03T15:21:06.837Z,93.03
2024-01-03T15:23:33.640Z,78.78
2024-01-03T15:26:02.066Z,101.97
2024-01-03T15:28:30.372Z,80.60
2024-01-03T15:30:58.427Z,71.45
2024-01-03T15:33:32.441Z,130.00
2024-01-03T15:35:59.462Z,136.57
2024-01-03T15:38:29.252Z,121.65
2024-01-03T15:40:55.991Z,91.07
2024-01-03T15:43:22.763Z,93.68
2024-01-03T15:45:50.472Z,59.30
2024-01-03T15:48:17.405Z,102.10
2024-01-03T15:50:44.399Z,125.93
2024-01-03T15:53:12.646Z,139.48
2024-01-03T15:55:39.721Z,174.18
2024-01-03T15:58:06.760Z,127.30
2024-01-03T16:00:34.394Z,98.35
2024-01-03T16:03:02.530Z,68.68
2024-01-03T16:05:30.564Z,93.40
2024-01-03T16:07:57.595Z,38.30
2024-01-03T16:10:24.641Z,65.15
2024-01-03T16:12:51.359Z,52.88
2024-01-03T16:15:18.452Z,45.42
2024-01-03T16:17:45.520Z,67.15
2024-01-03T16:20:14.812Z,43.65
2024-01-03T16:22:41.638Z,71.20
2024-01-03T16:25:12.551Z,45.33
2024-01-03T16:27:40.062Z,52.60
2024-01-03T16:30:07.401Z,28.67
2024-01-03T16:32:34.569Z,44.53
2024-01-03T16:35:01.538Z,49.60
2024-01-03T16:37:32.709Z,55.65
2024-01-03T16:40:00.375Z,62.15
2024-01-03T16:42:27.119Z,29.90
2024-01-03T16:44:55.017Z,21.45
2024-01-03T16:47:21.819Z,39.55
2024-01-03T16:49:48.758Z,46.08
2024-01-03T16:52:22.185Z,54.83
2024-01-03T16:54:48.939Z,57.58
2024-01-03T16:57:15.737Z,52.90
2024-01-03T16:59:43.243Z,48.67
2024-01-03T17:02:11.744Z,41.60
2024-01-03T17:04:38.480Z,45.53
2024-01-03T17:07:05.466Z,47.72
2024-01-03T17:09:32.906Z,33.58
2024-01-03T17:11:59.778Z,41.30
2024-01-03T17:14:26.557Z,24.67
2024-01-03T17:16:53.331Z,20.23
2024-01-03T17:19:21.280Z,56.08
2024-01-03T17:21:49.187Z,55.95
2024-01-03T17:24:15.992Z,68.35
2024-01-03T17:26:43.664Z,89.22
2024-01-03T17:29:11.232Z,83.82
2024-01-03T17:31:38.096Z,89.97
2024-01-03T17:34:06.791Z,102.75
2024-01-03T17:36:34.389Z,191.25
2024-01-03T17:39:01.173Z,214.25
2024-01-03T17:41:28.346Z,220.85
2024-01-03T17:43:56.611Z,222.00
2024-01-03T17:46:23.628Z,207.73
2024-01-03T17:48:52.752Z,193.15
2024-01-03T17:51:21.574Z,191.65
2024-01-03T17:53:52.546Z,213.73
2024-01-03T17:56:24.654Z,195.98
2024-01-03T17:58:52.307Z,200.07
2024-01-03T18:01:20.011Z,201.00
2024-01-03T18:03:47.230Z,191.05
2024-01-03T18:06:15.338Z,187.50
2024-01-03T18:08:42.300Z,172.10
2024-01-03T18:11:09.110Z,161.63
2024-01-03T18:13:36.546Z,158.13
2024-01-03T18:16:03.552Z,173.05
2024-01-03T18:18:30.530Z,190.15
2024-01-03T18:20:58.497Z,192.93
2024-01-03T18:23:25.618Z,186.55
2024-01-03T18:25:52.639Z,200.15
2024-01-03T18:28:19.451Z,213.50
2024-01-03T18:30:46.711Z,184.35
2024-01-03T18:33:13.990Z,207.43
2024-01-03T18:35:42.398Z,242.40
2024-01-03T18:38:09.587Z,181.50
2024-01-03T18:40:38.736Z,146.23
2024-01-03T18:43:07.265Z,155.07
2024-01-03T18:45:34.234Z,160.63
2024-01-03T18:48:02.223Z,145.85
2024-01-03T18:50:30.424Z,133.73
2024-01-03T18:52:57.109Z,175.30
2024-01-03T18:55:24.535Z,127.60
2024-01-03T18:57:58.058Z,132.10
2024-01-03T19:00:26.533Z,118.80
2024-01-03T19:02:53.288Z,94.70
2024-01-03T19:05:20.572Z,57.60
2024-01-03T19:07:47.382Z,70.97
2024-01-03T19:10:16.831Z,76.32
2024-01-03T19:12:43.530Z,48.00
2024-01-03T19:15:10.806Z,55.75
2024-01-03T19:17:38.138Z,54.22
2024-01-03T19:20:05.442Z,52.13
2024-01-03T19:22:37.291Z,38.97
2024-01-03T19:25:04.758Z,46.97
2024-01-03T19:27:32.602Z,42.25
2024-01-03T19:30:02.627Z,40.22
2024-01-03T19:32:30.132Z,36.10
2024-01-03T19:34:56.935Z,37.65
2024-01-03T19:37:24.506Z,33.97
2024-01-03T19:39:51.436Z,40.35
2024-01-03T19:42:18.279Z,41.13
2024-01-03T19:44:45.266Z,46.60
2024-01-03T19:47:12.340Z,47.97
2024-01-03T19:49:39.290Z,45.75
2024-01-03T19:52:06.312Z,41.65
2024-01-03T19:54:33.092Z,37.72
2024-01-03T19:56:59.881Z,36.03
2024-01-03T19:59:27.507Z,22.92
2024-01-03T20:01:54.315Z,25.63
2024-01-03T20:04:21.200Z,23.55
2024-01-03T20:06:48.272Z,21.48
2024-01-03T20:09:15.676Z,24.92
2024-01-03T20:11:46.443Z,31.75
2024-01-03T20:14:13.654Z,34.15
2024-01-03T20:16:43.236Z,42.50
2024-01-03T20:19:11.033Z,45.90
2024-01-03T20:21:43.932Z,38.60
2024-01-03T20:24:11.128Z,50.38
2024-01-03T20:26:40.642Z,37.72
2024-01-03T20:29:11.312Z,39.55
2024-01-03T20:31:38.324Z,29.42
2024-01-03T20:34:06.381Z,57.45
2024-01-03T20:36:34.616Z,58.40
2024-01-03T20:39:01.987Z,41.90
2024-01-03T20:41:29.486Z,30.23
2024-01-03T20:43:56.549Z,22.38
2024-01-03T20:46:23.359Z,27.73
2024-01-03T20:48:50.846Z,29.55
2024-01-03T20:51:19.022Z,29.13
2024-01-03T20:53:46.348Z,27.58
2024-01-03T20:56:13.698Z,28.88
2024-01-03T20:58:40.684Z,33.90
2024-01-03T21:01:08.026Z,27.08
2024-01-03T21:03:39.418Z,24.52
2024-01-03T21:06:10.394Z,22.95
2024-01-03T21:08:38.241Z,30.00
2024-01-03T21:11:08.430Z,35.60
2024-01-03T21:13:37.154Z,45.30
2024-01-03T21:16:04.040Z,38.90
2024-01-03T21:18:31.808Z,41.45
2024-01-03T21:20:58.688Z,30.77
2024-01-03T21:23:25.466Z,31.73
2024-01-03T21:25:52.141Z,28.17
2024-01-03T21:28:19.041Z,41.60
2024-01-03T21:30:46.226Z,27.83
2024-01-03T21:33:14.689Z,28.55
2024-01-03T21:35:42.909Z,38.92
2024-01-03T21:38:10.281Z,51.63
2024-01-03T21:40:37.799Z,59.53
2024-01-03T21:43:05.014Z,56.33
2024-01-03T21:45:32.145Z,66.90
2024-01-03T21:47:59.225Z,43.20
2024-01-03T21:50:26.056Z,35.55
2024-01-03T21:52:52.848Z,37.72
2024-01-03T21:55:19.608Z,40.20
2024-01-03T21:57:46.343Z,48.83
2024-01-03T22:00:14.453Z,49.45
2024-01-03T22:02:41.315Z,56.13
2024-01-03T22:05:18.818Z,71.68
2024-01-03T22:07:46.634Z,66.45
2024-01-03T22:10:15.541Z,61.63
2024-01-03T22:12:48.597Z,73.07
2024-01-03T22:15:19.955Z,72.90
2024-01-03T22:17:47.213Z,56.80
2024-01-03T22:20:15.494Z,64.25
2024-01-03T22:22:43.193Z,40.08
2024-01-03T22:25:10.659Z,35.75
2024-01-03T22:27:38.693Z,43.45
2024-01-03T22:30:06.223Z,38.03
2024-01-03T22:32:34.396Z,37.35
2024-01-03T22:35:01.353Z,35.70
2024-01-03T22:37:28.965Z,34.55
2024-01-03T22:39:56.775Z,32.50
2024-01-03T22:42:23.857Z,29.80
2024-01-03T22:44:50.631Z,26.40
2024-01-03T22:47:17.351Z,18.42
2024-01-03T22:49:44.331Z,21.08
2024-01-03T22:52:12.526Z,23.13
2024-01-03T22:54:39.249Z,16.90
2024-01-03T22:57:06.102Z,15.73
2024-01-03T22:59:32.863Z,21.65
2024-01-03T23:01:59.817Z,24.42
2024-01-03T23:04:26.883Z,19.33
2024-01-03T23:06:53.908Z,25.55
2024-01-03T23:09:20.698Z,24.63
2024-01-03T23:11:49.162Z,24.63
2024-01-03T23:14:16.168Z,25.27
2024-01-03T23:16:42.974Z,21.55
2024-01-03T23:19:10.027Z,17.80
2024-01-03T23:21:36.965Z,25.48
2024-01-03T23:24:04.023Z,18.80
2024-01-03T23:26:31.032Z,29.33
2024-01-03T23:28:57.858Z,28.33
2024-01-03T23:31:24.667Z,24.90
2024-01-03T23:33:51.622Z,22.17
2024-01-03T23:36:18.497Z,19.83
2024-01-03T23:38:45.266Z,31.98
2024-01-03T23:41:19.121Z,32.25
2024-01-03T23:43:47.797Z,38.90
2024-01-03T23:46:15.678Z,25.52
2024-01-03T23:48:43.059Z,24.67
2024-01-03T23:51:10.018Z,58.97
2024-01-03T23:53:36.871Z,31.70
2024-01-03T23:56:04.047Z,24.73
2024-01-03T23:58:30.815Z,24.70
